createdAt,value
2019-04-05T00:04:17.633Z,14.60
2019-04-05T00:07:06.411Z,12.90
2019-04-05T00:09:42.779Z,13.73
2019-04-05T00:12:16.904Z,13.90
2019-04-05T00:15:00.626Z,13.43
2019-04-05T00:17:37.600Z,13.33
2019-04-05T00:23:20.422Z,13.67
2019-04-05T00:25:54.572Z,13.90
2019-04-05T00:28:38.124Z,14.63
2019-04-05T00:31:14.448Z,16.17
2019-04-05T00:33:54.137Z,13.57
2019-04-05T00:36:29.029Z,14.67
2019-04-05T00:39:02.293Z,14.57
2019-04-05T00:41:35.100Z,14.67
2019-04-05T00:44:10.204Z,14.70
2019-04-05T00:46:59.819Z,15.10
2019-04-05T00:49:35.736Z,15.90
2019-04-05T00:52:06.497Z,15.50
2019-04-05T00:54:44.475Z,14.60
2019-04-05T00:57:25.601Z,16.40
2019-04-05T00:59:56.931Z,16.37
2019-04-05T01:02:36.534Z,16.40
2019-04-05T01:05:09.518Z,16.37
2019-04-05T01:07:47.452Z,16.63
2019-04-05T01:10:19.371Z,17.60
2019-04-05T01:12:49.658Z,16.40
2019-04-05T01:15:40.688Z,16.17
2019-04-05T01:18:04.629Z,15.43
2019-04-05T01:20:41.195Z,15.90
2019-04-05T01:23:16.815Z,15.87
2019-04-05T01:25:56.289Z,14.67
2019-04-05T01:28:29.789Z,15.60
2019-04-05T01:30:59.266Z,16.37
2019-04-05T01:33:35.569Z,17.10
2019-04-05T01:36:13.893Z,16.80
2019-04-05T01:38:48.379Z,18.37
2019-04-05T01:41:19.026Z,17.70
2019-04-05T01:43:50.392Z,17.30
2019-04-05T01:46:23.161Z,17.50
2019-04-05T01:48:52.950Z,16.40
2019-04-05T01:51:28.600Z,15.37
2019-04-05T01:54:02.430Z,15.80
2019-04-05T01:56:39.517Z,16.00
2019-04-05T01:59:14.111Z,16.60
2019-04-05T02:01:49.142Z,15.70
2019-04-05T02:04:26.229Z,17.00
2019-04-05T02:06:53.291Z,17.07
2019-04-05T02:09:38.953Z,19.07
2019-04-05T02:12:22.212Z,18.83
2019-04-05T02:14:56.105Z,17.07
2019-04-05T02:17:35.918Z,18.20
2019-04-05T02:20:11.277Z,18.47
2019-04-05T02:22:50.249Z,19.90
2019-04-05T02:25:23.005Z,19.43
2019-04-05T02:27:53.491Z,19.50
2019-04-05T02:33:19.035Z,19.00
2019-04-05T02:35:50.391Z,18.30
2019-04-05T02:38:25.836Z,20.10
2019-04-05T02:40:59.612Z,19.80
2019-04-05T02:43:41.357Z,20.80
2019-04-05T02:46:27.310Z,20.83
2019-04-05T02:49:01.576Z,20.50
2019-04-05T02:51:32.362Z,20.73
2019-04-05T02:54:07.803Z,20.97
2019-04-05T02:56:52.679Z,21.37
2019-04-05T02:59:32.409Z,21.00
2019-04-05T03:02:06.954Z,21.20
2019-04-05T03:04:50.185Z,21.23
2019-04-05T03:07:26.216Z,20.37
2019-04-05T03:10:01.918Z,21.07
2019-04-05T03:12:35.164Z,22.03
2019-04-05T03:15:12.313Z,20.43
2019-04-05T03:17:48.508Z,19.67
2019-04-05T03:20:21.077Z,21.23
2019-04-05T03:22:54.372Z,21.60
2019-04-05T03:25:26.177Z,19.00
2019-04-05T03:28:03.988Z,19.30
2019-04-05T03:30:44.856Z,19.17
2019-04-05T03:33:17.315Z,20.23
2019-04-05T03:35:50.162Z,18.60
2019-04-05T03:38:31.434Z,18.50
2019-04-05T03:41:07.914Z,18.97
2019-04-05T03:43:39.756Z,18.03
2019-04-05T03:46:22.953Z,18.00
2019-04-05T03:48:52.795Z,17.30
2019-04-05T03:51:24.398Z,18.70
2019-04-05T03:53:56.400Z,17.17
2019-04-05T03:56:33.494Z,17.67
2019-04-05T03:59:06.162Z,18.17
2019-04-05T04:01:36.864Z,17.37
2019-04-05T04:04:07.119Z,17.90
2019-04-05T04:06:47.208Z,16.60
2019-04-05T04:09:20.908Z,16.70
2019-04-05T04:11:54.983Z,16.80
2019-04-05T04:14:25.926Z,15.90
2019-04-05T04:17:11.362Z,16.33
2019-04-05T04:19:35.920Z,17.17
2019-04-05T04:22:28.571Z,16.40
2019-04-05T04:25:09.402Z,16.20
2019-04-05T04:27:54.577Z,16.13
2019-04-05T04:30:40.414Z,17.57
2019-04-05T04:33:13.179Z,16.17
2019-04-05T04:35:50.586Z,16.80
2019-04-05T04:38:23.362Z,17.87
2019-04-05T04:41:21.407Z,16.57
2019-04-05T04:44:04.050Z,15.10
2019-04-05T04:46:43.073Z,16.13
2019-04-05T04:49:18.574Z,16.93
2019-04-05T04:51:52.577Z,16.60
2019-04-05T04:54:30.107Z,16.63
2019-04-05T04:57:07.279Z,15.30
2019-04-05T04:59:42.852Z,16.00
2019-04-05T05:02:26.248Z,16.67
2019-04-05T05:05:19.003Z,15.40
2019-04-05T05:07:55.955Z,15.60
2019-04-05T05:10:30.613Z,15.33
2019-04-05T05:13:01.143Z,15.30
2019-04-05T05:15:43.342Z,15.70
2019-04-05T05:18:18.033Z,14.30
2019-04-05T05:20:57.511Z,15.13
2019-04-05T05:23:24.627Z,14.80
2019-04-05T05:25:57.307Z,16.20
2019-04-05T05:28:37.890Z,15.63
2019-04-05T05:31:14.486Z,15.37
2019-04-05T05:33:51.904Z,15.20
2019-04-05T05:36:34.740Z,15.73
2019-04-05T05:39:07.416Z,17.30
2019-04-05T05:41:51.971Z,15.90
2019-04-05T05:44:31.206Z,15.90
2019-04-05T05:46:59.087Z,14.83
2019-04-05T05:49:27.283Z,16.20
2019-04-05T05:51:55.448Z,16.83
2019-04-05T05:54:23.607Z,17.47
2019-04-05T05:56:51.723Z,17.60
2019-04-05T05:59:19.803Z,14.93
2019-04-05T06:01:47.783Z,16.40
2019-04-05T06:04:15.939Z,14.87
2019-04-05T06:06:44.080Z,15.47
2019-04-05T06:09:12.318Z,16.00
2019-04-05T06:11:40.468Z,16.03
2019-04-05T06:14:08.553Z,16.27
2019-04-05T06:16:46.361Z,16.20
2019-04-05T06:19:06.377Z,16.47
2019-04-05T06:21:34.535Z,15.77
2019-04-05T06:24:05.128Z,16.43
2019-04-05T06:26:32.443Z,14.97
2019-04-05T06:29:00.597Z,14.90
2019-04-05T06:31:28.726Z,15.17
2019-04-05T06:33:56.847Z,15.07
2019-04-05T06:36:25.017Z,15.03
2019-04-05T06:38:53.157Z,15.43
2019-04-05T06:41:21.650Z,15.03
2019-04-05T06:43:49.776Z,15.67
2019-04-05T06:46:17.899Z,14.20
2019-04-05T06:48:46.108Z,14.97
2019-04-05T06:51:14.333Z,15.40
2019-04-05T06:53:42.637Z,14.10
2019-04-05T06:56:10.822Z,14.97
2019-04-05T06:58:39.129Z,16.53
2019-04-05T07:01:07.643Z,14.70
2019-04-05T07:03:36.048Z,14.40
2019-04-05T07:06:04.385Z,15.40
2019-04-05T07:08:32.619Z,15.40
2019-04-05T07:11:01.010Z,15.90
2019-04-05T07:13:29.324Z,14.73
2019-04-05T07:15:57.588Z,14.77
2019-04-05T07:18:34.099Z,15.37
2019-04-05T07:20:57.857Z,16.37
2019-04-05T07:23:26.172Z,15.70
2019-04-05T07:25:54.384Z,17.40
2019-04-05T07:28:25.006Z,16.30
2019-04-05T07:30:52.494Z,16.93
2019-04-05T07:33:20.832Z,17.27
2019-04-05T07:35:49.033Z,16.00
2019-04-05T07:38:17.262Z,17.33
2019-04-05T07:40:45.517Z,17.27
2019-04-05T07:43:13.760Z,16.40
2019-04-05T07:45:42.072Z,16.53
2019-04-05T07:48:10.281Z,15.70
2019-04-05T07:50:38.655Z,16.30
2019-04-05T07:53:06.783Z,15.83
2019-04-05T07:55:34.931Z,15.70
2019-04-05T07:58:03.253Z,16.50
2019-04-05T08:00:51.450Z,16.43
2019-04-05T08:03:19.716Z,15.90
2019-04-05T08:05:48.714Z,15.63
2019-04-05T08:08:20.448Z,14.23
2019-04-05T08:10:48.945Z,13.50
2019-04-05T08:13:17.210Z,15.70
2019-04-05T08:15:45.504Z,14.23
2019-04-05T08:18:13.598Z,13.60
2019-04-05T08:20:41.704Z,13.97
2019-04-05T08:23:09.879Z,13.60
2019-04-05T08:25:40.972Z,14.33
2019-04-05T08:28:07.974Z,15.80
2019-04-05T08:30:36.076Z,15.80
2019-04-05T08:33:04.231Z,13.30
2019-04-05T08:35:32.347Z,13.10
2019-04-05T08:38:00.482Z,14.63
2019-04-05T08:40:28.701Z,13.80
2019-04-05T08:42:56.821Z,12.47
2019-04-05T08:45:24.926Z,13.13
2019-04-05T08:47:53.031Z,12.70
2019-04-05T08:50:21.295Z,12.10
2019-04-05T08:52:49.431Z,11.67
2019-04-05T08:55:17.463Z,11.73
2019-04-05T08:57:47.959Z,12.80
2019-04-05T09:00:15.836Z,12.77
2019-04-05T09:02:43.993Z,13.47
2019-04-05T09:05:12.087Z,12.27
2019-04-05T09:07:40.159Z,13.00
2019-04-05T09:10:08.352Z,13.13
2019-04-05T09:12:36.390Z,12.87
2019-04-05T09:15:04.902Z,12.80
2019-04-05T09:17:32.984Z,13.60
2019-04-05T09:20:01.050Z,13.33
2019-04-05T09:22:29.236Z,13.50
2019-04-05T09:24:57.392Z,13.97
2019-04-05T09:27:25.502Z,13.33
2019-04-05T09:29:53.650Z,14.87
2019-04-05T09:32:21.803Z,13.70
2019-04-05T09:34:49.978Z,13.87
2019-04-05T09:37:18.128Z,14.30
2019-04-05T09:39:46.218Z,13.77
2019-04-05T09:42:14.370Z,14.93
2019-04-05T09:44:42.467Z,15.40
2019-04-05T09:47:10.619Z,13.30
2019-04-05T09:49:39.877Z,13.50
2019-04-05T09:52:08.105Z,12.20
2019-04-05T09:54:36.177Z,11.03
2019-04-05T09:57:04.337Z,12.10
2019-04-05T09:59:32.459Z,11.63
2019-04-05T10:02:00.576Z,10.67
2019-04-05T10:04:31.151Z,10.70
2019-04-05T10:06:58.526Z,12.20
2019-04-05T10:09:27.015Z,11.33
2019-04-05T10:11:55.041Z,10.33
2019-04-05T10:14:23.301Z,11.40
2019-04-05T10:16:51.499Z,11.40
2019-04-05T10:19:19.655Z,11.60
2019-04-05T10:21:47.927Z,12.03
2019-04-05T10:24:16.015Z,12.30
2019-04-05T10:26:44.324Z,11.87
2019-04-05T10:29:12.468Z,11.20
2019-04-05T10:31:42.163Z,12.17
2019-04-05T10:34:10.299Z,12.20
2019-04-05T10:36:38.401Z,9.50
2019-04-05T10:39:08.514Z,9.97
2019-04-05T10:41:36.606Z,9.93
2019-04-05T10:44:06.459Z,11.13
2019-04-05T10:46:34.683Z,10.07
2019-04-05T10:49:02.868Z,9.43
2019-04-05T10:51:31.025Z,9.17
2019-04-05T10:53:59.189Z,8.20
2019-04-05T10:56:27.344Z,8.03
2019-04-05T10:58:55.491Z,9.10
2019-04-05T11:01:23.646Z,8.60
2019-04-05T11:03:51.800Z,8.30
2019-04-05T11:06:19.958Z,7.60
2019-04-05T11:08:48.137Z,8.97
2019-04-05T11:11:16.330Z,8.60
2019-04-05T11:13:44.590Z,8.30
2019-04-05T11:16:12.976Z,8.33
2019-04-05T11:18:41.147Z,8.50
2019-04-05T11:21:10.107Z,8.90
2019-04-05T11:23:38.194Z,9.30
2019-04-05T11:26:06.499Z,9.13
2019-04-05T11:28:34.592Z,9.40
2019-04-05T11:31:02.782Z,10.53
2019-04-05T11:33:31.068Z,8.30
2019-04-05T11:35:59.258Z,10.27
2019-04-05T11:38:27.735Z,8.80
2019-04-05T11:40:56.764Z,9.67
2019-04-05T11:43:26.959Z,10.17
2019-04-05T11:45:56.662Z,10.00
2019-04-05T11:48:24.904Z,9.70
2019-04-05T11:50:53.032Z,10.40
2019-04-05T11:53:22.080Z,10.80
2019-04-05T11:55:50.443Z,10.73
2019-04-05T11:58:18.635Z,10.20
2019-04-05T12:00:53.315Z,9.83
2019-04-05T12:03:22.088Z,10.20
2019-04-05T12:05:50.385Z,10.20
2019-04-05T12:08:18.653Z,10.20
2019-04-05T12:10:47.069Z,9.73
2019-04-05T12:13:15.324Z,9.57
2019-04-05T12:15:43.591Z,8.83
2019-04-05T12:18:11.757Z,10.57
2019-04-05T12:20:49.098Z,9.77
2019-04-05T12:23:09.805Z,11.10
2019-04-05T12:25:38.078Z,9.60
2019-04-05T12:28:08.899Z,9.30
2019-04-05T12:30:36.826Z,10.37
2019-04-05T12:33:13.566Z,11.33
2019-04-05T12:35:37.481Z,12.37
2019-04-05T12:38:06.939Z,10.93
2019-04-05T12:40:35.015Z,11.10
2019-04-05T12:43:03.297Z,11.70
2019-04-05T12:45:31.587Z,12.20
2019-04-05T12:47:59.901Z,12.50
2019-04-05T12:50:28.332Z,12.43
2019-04-05T12:52:57.362Z,13.70
2019-04-05T12:55:28.184Z,13.23
2019-04-05T12:57:56.887Z,12.27
2019-04-05T13:00:26.032Z,12.20
2019-04-05T13:02:57.043Z,12.67
2019-04-05T13:05:24.764Z,13.20
2019-04-05T13:07:53.411Z,12.70
2019-04-05T13:10:25.034Z,13.90
2019-04-05T13:12:51.951Z,11.80
2019-04-05T13:15:20.310Z,14.87
2019-04-05T13:17:48.588Z,13.47
2019-04-05T13:20:16.792Z,14.67
2019-04-05T13:22:45.157Z,14.53
2019-04-05T13:25:13.368Z,14.77
2019-04-05T13:27:42.187Z,16.03
2019-04-05T13:30:10.986Z,15.77
2019-04-05T13:32:39.173Z,15.97
2019-04-05T13:35:07.645Z,14.83
2019-04-05T13:37:35.948Z,16.10
2019-04-05T13:40:06.425Z,15.40
2019-04-05T13:42:35.546Z,16.27
2019-04-05T13:45:03.963Z,17.70
2019-04-05T13:47:33.102Z,16.73
2019-04-05T13:50:01.378Z,17.77
2019-04-05T13:52:29.598Z,17.20
2019-04-05T13:54:57.831Z,17.30
2019-04-05T13:57:28.420Z,17.50
2019-04-05T13:59:59.028Z,18.17
2019-04-05T14:02:27.185Z,17.00
2019-04-05T14:04:55.425Z,17.97
2019-04-05T14:07:25.159Z,20.00
2019-04-05T14:09:53.555Z,18.33
2019-04-05T14:12:21.810Z,16.13
2019-04-05T14:14:51.645Z,19.10
2019-04-05T14:17:20.245Z,16.97
2019-04-05T14:19:51.476Z,16.17
2019-04-05T14:22:22.236Z,17.80
2019-04-05T14:24:50.435Z,17.43
2019-04-05T14:27:19.427Z,18.10
2019-04-05T14:29:47.838Z,18.60
2019-04-05T14:32:20.827Z,19.00
2019-04-05T14:34:47.677Z,19.47
2019-04-05T14:37:15.884Z,18.37
2019-04-05T14:39:47.838Z,19.63
2019-04-05T14:42:16.117Z,19.97
2019-04-05T14:44:44.365Z,20.00
2019-04-05T14:47:12.583Z,18.00
2019-04-05T14:49:41.083Z,17.93
2019-04-05T14:52:09.341Z,20.07
2019-04-05T14:54:37.554Z,20.40
2019-04-05T14:57:06.119Z,18.80
2019-04-05T14:59:34.640Z,20.13
2019-04-05T15:02:02.918Z,18.90
2019-04-05T15:04:32.776Z,17.57
2019-04-05T15:07:01.348Z,18.10
2019-04-05T15:09:29.732Z,17.50
2019-04-05T15:11:58.620Z,18.43
2019-04-05T15:14:27.484Z,18.40
2019-04-05T15:16:55.857Z,15.40
2019-04-05T15:19:24.184Z,17.60
2019-04-05T15:22:04.824Z,16.47
2019-04-05T15:24:22.184Z,16.20
2019-04-05T15:26:51.606Z,16.97
2019-04-05T15:29:20.249Z,16.23
2019-04-05T15:31:48.394Z,17.20
2019-04-05T15:34:16.555Z,17.27
2019-04-05T15:36:44.793Z,17.40
2019-04-05T15:39:12.899Z,16.63
2019-04-05T15:41:41.038Z,17.33
2019-04-05T15:44:09.239Z,19.13
2019-04-05T15:46:37.341Z,18.40
2019-04-05T15:49:05.405Z,18.13
2019-04-05T15:51:33.693Z,17.17
2019-04-05T15:54:02.252Z,18.37
2019-04-05T15:56:33.363Z,16.87
2019-04-05T15:59:03.648Z,18.40
2019-04-05T16:01:32.164Z,18.30
2019-04-05T16:04:02.709Z,18.47
2019-04-05T16:06:33.429Z,18.97
2019-04-05T16:09:01.558Z,19.53
2019-04-05T16:11:29.829Z,21.17
2019-04-05T16:13:58.089Z,18.37
2019-04-05T16:16:26.574Z,20.40
2019-04-05T16:18:58.172Z,19.43
2019-04-05T16:21:25.580Z,19.43
2019-04-05T16:23:53.721Z,18.80
2019-04-05T16:26:21.890Z,18.80
2019-04-05T16:28:49.992Z,17.60
2019-04-05T16:31:18.115Z,19.50
2019-04-05T16:33:46.309Z,18.63
2019-04-05T16:36:14.450Z,17.47
2019-04-05T16:38:42.595Z,17.13
2019-04-05T16:41:10.738Z,19.17
2019-04-05T16:43:38.920Z,18.57
2019-04-05T16:46:07.080Z,18.70
2019-04-05T16:48:38.650Z,17.23
2019-04-05T16:51:06.836Z,17.40
2019-04-05T16:53:34.983Z,19.00
2019-04-05T16:56:03.103Z,18.97
2019-04-05T16:58:31.154Z,17.77
2019-04-05T17:00:59.264Z,18.30
2019-04-05T17:03:27.347Z,21.73
2019-04-05T17:05:55.603Z,18.93
2019-04-05T17:08:23.630Z,18.47
2019-04-05T17:10:51.682Z,19.97
2019-04-05T17:13:19.889Z,20.47
2019-04-05T17:15:48.076Z,20.20
2019-04-05T17:18:16.452Z,19.63
2019-04-05T17:20:44.643Z,20.30
2019-04-05T17:23:12.801Z,21.27
2019-04-05T17:25:43.930Z,21.77
2019-04-05T17:28:11.997Z,20.37
2019-04-05T17:30:40.106Z,22.33
2019-04-05T17:33:08.270Z,21.67
2019-04-05T17:35:36.325Z,19.63
2019-04-05T17:38:04.512Z,22.40
2019-04-05T17:40:32.654Z,23.27
2019-04-05T17:43:00.869Z,22.40
2019-04-05T17:45:28.989Z,22.70
2019-04-05T17:47:57.268Z,21.23
2019-04-05T17:50:29.710Z,23.27
2019-04-05T17:53:10.846Z,22.03
2019-04-05T17:55:27.667Z,22.90
2019-04-05T17:57:56.428Z,24.80
2019-04-05T18:00:24.843Z,23.50
2019-04-05T18:02:53.082Z,23.40
2019-04-05T18:05:21.263Z,23.70
2019-04-05T18:07:49.440Z,23.27
2019-04-05T18:10:17.624Z,23.90
2019-04-05T18:12:45.658Z,22.20
2019-04-05T18:15:13.792Z,22.40
2019-04-05T18:17:42.009Z,23.93
2019-04-05T18:20:10.317Z,23.20
2019-04-05T18:22:38.444Z,26.80
2019-04-05T18:25:06.848Z,22.67
2019-04-05T18:27:35.018Z,23.33
2019-04-05T18:30:04.154Z,21.13
2019-04-05T18:32:35.548Z,24.33
2019-04-05T18:35:03.779Z,23.03
2019-04-05T18:37:31.924Z,24.37
2019-04-05T18:40:00.275Z,24.47
2019-04-05T18:42:28.510Z,24.07
2019-04-05T18:44:56.894Z,22.70
2019-04-05T18:47:25.019Z,23.60
2019-04-05T18:50:02.801Z,24.30
2019-04-05T18:52:23.045Z,24.10
2019-04-05T18:54:51.266Z,23.43
2019-04-05T18:57:19.401Z,24.77
2019-04-05T18:59:51.154Z,24.50
2019-04-05T19:02:19.291Z,23.43
2019-04-05T19:04:47.513Z,24.03
2019-04-05T19:07:15.670Z,24.23
2019-04-05T19:09:43.916Z,25.07
2019-04-05T19:12:12.111Z,22.63
2019-04-05T19:14:40.178Z,23.00
2019-04-05T19:17:09.587Z,23.13
2019-04-05T19:19:37.769Z,22.57
2019-04-05T19:22:05.987Z,24.70
2019-04-05T19:24:34.137Z,23.30
2019-04-05T19:27:02.254Z,23.37
2019-04-05T19:29:30.402Z,21.30
2019-04-05T19:49:27.073Z,23.57
2019-04-05T19:51:55.182Z,23.00
2019-04-05T19:54:23.327Z,24.00
2019-04-05T19:56:51.514Z,23.00
2019-04-05T19:59:19.783Z,23.77
2019-04-05T20:01:47.899Z,24.37
2019-04-05T20:04:15.998Z,22.20
2019-04-05T20:06:44.174Z,24.00
2019-04-05T20:09:12.284Z,25.03
2019-04-05T20:11:40.487Z,24.13
2019-04-05T20:14:08.609Z,21.60
2019-04-05T20:16:36.694Z,22.70
2019-04-05T20:19:04.907Z,22.67
2019-04-05T20:21:33.055Z,23.03
2019-04-05T20:24:05.906Z,23.10
2019-04-05T20:26:30.990Z,24.30
2019-04-05T20:28:59.145Z,24.00
2019-04-05T20:31:27.394Z,23.30
2019-04-05T20:33:55.652Z,24.73
2019-04-05T20:36:23.939Z,24.90
2019-04-05T20:38:52.047Z,23.80
2019-04-05T20:41:20.182Z,23.43
2019-04-05T20:43:48.258Z,23.30
2019-04-05T20:46:16.393Z,25.47
2019-04-05T20:48:44.792Z,25.40
2019-04-05T20:51:13.064Z,24.67
2019-04-05T20:53:41.223Z,26.10
2019-04-05T20:56:09.374Z,24.47
2019-04-05T20:58:37.674Z,23.93
2019-04-05T21:01:05.816Z,25.30
2019-04-05T21:03:33.965Z,24.53
2019-04-05T21:06:02.087Z,26.07
2019-04-05T21:08:30.179Z,24.87
2019-04-05T21:10:58.301Z,25.53
2019-04-05T21:13:26.349Z,25.10
2019-04-05T21:15:57.559Z,24.47
2019-04-05T21:18:25.670Z,24.07
2019-04-05T21:20:53.837Z,23.30
2019-04-05T21:23:21.995Z,22.67
2019-04-05T21:25:50.040Z,24.00
2019-04-05T21:28:18.139Z,24.40
2019-04-05T21:30:46.207Z,23.30
2019-04-05T21:33:14.277Z,24.43
2019-04-05T21:35:42.374Z,25.80
2019-04-05T21:38:10.531Z,26.40
2019-04-05T21:40:38.678Z,25.60
2019-04-05T21:43:06.783Z,25.47
2019-04-05T21:45:34.923Z,23.10
2019-04-05T21:48:03.001Z,24.40
2019-04-05T21:50:31.103Z,25.03
2019-04-05T21:52:59.254Z,22.93
2019-04-05T21:55:27.281Z,26.37
2019-04-05T21:57:55.408Z,23.03
2019-04-05T22:00:25.543Z,26.10
2019-04-05T22:02:53.734Z,26.43
2019-04-05T22:05:21.963Z,24.20
2019-04-05T22:07:51.543Z,26.20
2019-04-05T22:10:19.776Z,24.97
2019-04-05T22:12:47.942Z,24.30
2019-04-05T22:15:16.051Z,25.43
2019-04-05T22:17:44.182Z,25.73
2019-04-05T22:20:12.433Z,23.60
2019-04-05T22:22:40.652Z,25.80
2019-04-05T22:25:08.855Z,23.80
2019-04-05T22:27:36.964Z,23.40
2019-04-05T22:30:06.001Z,25.30
2019-04-05T22:32:34.128Z,25.80
2019-04-05T22:35:02.287Z,24.03
2019-04-05T22:37:30.388Z,24.80
2019-04-05T22:39:58.513Z,24.50
2019-04-05T22:42:26.656Z,24.37
2019-04-05T22:44:54.783Z,24.10
2019-04-05T22:47:23.021Z,25.10
2019-04-05T22:49:51.300Z,23.20
2019-04-05T22:52:19.552Z,23.30
2019-04-05T22:54:47.817Z,22.77
2019-04-05T22:57:15.908Z,22.33
2019-04-05T22:59:43.944Z,22.30
2019-04-05T23:02:12.145Z,23.30
2019-04-05T23:04:40.260Z,22.30
2019-04-05T23:07:08.699Z,23.63
2019-04-05T23:09:36.772Z,22.60
2019-04-05T23:12:05.970Z,23.73
2019-04-05T23:14:34.535Z,24.17
2019-04-05T23:17:02.675Z,22.77
2019-04-05T23:19:30.815Z,21.93
2019-04-05T23:22:00.961Z,22.63
2019-04-05T23:24:28.808Z,22.37
2019-04-05T23:26:57.083Z,22.70
2019-04-05T23:29:25.357Z,21.47
2019-04-05T23:31:53.463Z,22.40
2019-04-05T23:34:21.703Z,22.93
2019-04-05T23:36:49.883Z,22.80
2019-04-05T23:39:17.997Z,22.07
2019-04-05T23:41:46.082Z,21.80
2019-04-05T23:44:14.316Z,24.00
2019-04-05T23:46:42.495Z,22.07
2019-04-05T23:49:10.590Z,21.20
2019-04-05T23:51:38.828Z,22.10
2019-04-05T23:54:06.939Z,21.47
2019-04-05T23:56:35.078Z,22.20
2019-04-05T23:59:03.581Z,21.37
